Time;durP1;ratioP1;P1;durP2;ratioP2;P2;SDS_P1;SDS_P2;PMS_P1;PMS_P2;Temp;Humidity;BMP_temperature;BMP_pressure;BME280_temperature;BME280_humidity;BME280_pressure;Samples;Min_cycle;Max_cycle;Signal;HPM_P1;HPM_P2
2023/05/06 00:02:12;;;;;;;2.12;1.22;;;;;;;9.30;66.71;100959.38;1790274;80;21502;-56
2023/05/06 00:04:41;;;;;;;2.17;1.25;;;;;;;9.25;66.78;100962.64;1790418;80;21689;-55
2023/05/06 00:07:11;;;;;;;6.80;1.40;;;;;;;9.24;66.90;100959.57;1790532;80;20999;-54
2023/05/06 00:09:41;;;;;;;2.75;1.17;;;;;;;9.29;66.92;100957.67;1790482;80;21463;-55
2023/05/06 00:12:10;;;;;;;1.55;0.98;;;;;;;9.28;66.57;100960.92;1790251;80;21054;-54
2023/05/06 00:14:40;;;;;;;1.47;1.00;;;;;;;9.24;66.46;100969.66;1790422;80;21094;-55
2023/05/06 00:17:09;;;;;;;3.15;1.40;;;;;;;9.21;66.35;100968.13;1790257;80;21513;-55
2023/05/06 00:19:38;;;;;;;3.80;1.30;;;;;;;9.17;66.34;100980.44;1790508;80;21051;-57
2023/05/06 00:22:08;;;;;;;1.10;0.90;;;;;;;9.16;66.38;100981.47;1790430;80;21395;-56
2023/05/06 00:24:37;;;;;;;1.60;1.30;;;;;;;9.16;66.32;100979.59;1790390;80;21109;-56
2023/05/06 00:27:07;;;;;;;4.85;1.15;;;;;;;9.14;66.34;100982.16;1790529;80;21006;-55
2023/05/06 00:29:36;;;;;;;2.00;1.27;;;;;;;9.09;66.44;100983.16;1790268;80;20983;-54
2023/05/06 00:32:05;;;;;;;1.87;1.30;;;;;;;9.05;66.58;100979.06;1790278;80;21070;-54
2023/05/06 00:34:34;;;;;;;4.25;1.40;;;;;;;9.00;66.64;100971.39;1790466;80;21055;-53
2023/05/06 00:37:02;;;;;;;2.90;1.37;;;;;;;8.97;66.78;100981.81;1790257;80;21455;-55
2023/05/06 00:39:33;;;;;;;1.70;1.05;;;;;;;8.94;66.89;100989.84;1790232;80;21496;-55
2023/05/06 00:42:02;;;;;;;3.08;1.52;;;;;;;8.93;67.14;100992.23;1790077;80;21051;-56
2023/05/06 00:44:31;;;;;;;2.22;1.25;;;;;;;8.89;67.25;100994.98;1790620;80;21019;-54
2023/05/06 00:47:00;;;;;;;2.87;1.32;;;;;;;8.88;67.41;100998.22;1790347;80;21627;-54
2023/05/06 00:49:29;;;;;;;1.95;1.30;;;;;;;8.88;67.45;101004.20;1761895;80;21046;-54
2023/05/06 00:51:57;;;;;;;1.35;1.10;;;;;;;8.84;67.63;101004.20;1790309;80;21495;-53
2023/05/06 00:54:26;;;;;;;4.60;1.10;;;;;;;8.81;67.89;101007.28;1790096;80;21513;-55
2023/05/06 00:56:54;;;;;;;2.77;1.20;;;;;;;8.79;68.04;101008.81;1790250;80;21042;-54
2023/05/06 00:59:24;;;;;;;2.10;1.12;;;;;;;8.71;68.29;101001.98;1790266;80;21454;-54
2023/05/06 01:01:53;;;;;;;4.05;1.20;;;;;;;8.70;68.52;101003.53;1790288;80;21011;-54
2023/05/06 01:04:22;;;;;;;1.60;1.10;;;;;;;8.70;68.75;101003.02;1790052;80;21624;-56
2023/05/06 01:06:58;;;;;;;1.92;1.10;;;;;;;8.70;69.01;101004.89;1790213;80;21018;-56
2023/05/06 01:10:01;;;;;;;3.70;1.37;;;;;;;8.69;69.19;101007.28;1790307;80;21995;-55
2023/05/06 01:12:35;;;;;;;1.85;1.10;;;;;;;8.72;69.20;101011.03;1789752;80;21458;-55
2023/05/06 01:15:15;;;;;;;2.40;1.15;;;;;;;8.71;69.21;101002.50;1790220;80;21086;-55
2023/05/06 01:17:50;;;;;;;1.98;1.27;;;;;;;8.70;69.23;101001.65;1790619;80;21940;-54
2023/05/06 01:20:20;;;;;;;1.47;1.10;;;;;;;8.72;69.34;101004.20;1790559;80;21439;-55
2023/05/06 01:22:49;;;;;;;2.22;0.98;;;;;;;8.71;69.28;101004.72;1790370;80;21454;-55
2023/05/06 01:25:21;;;;;;;1.40;1.10;;;;;;;8.70;69.19;101009.84;1790315;80;21450;-55
2023/05/06 01:27:50;;;;;;;2.17;1.00;;;;;;;8.69;69.09;101012.23;1790100;80;21054;-55
2023/05/06 01:30:19;;;;;;;1.70;1.00;;;;;;;8.71;69.09;101017.53;1790579;80;21464;-55
2023/05/06 01:33:04;;;;;;;1.15;1.00;;;;;;;8.70;69.08;101024.02;1790495;80;21500;-54
2023/05/06 01:36:14;;;;;;;1.90;0.95;;;;;;;8.68;68.90;101031.53;1790291;80;21062;-54
2023/05/06 01:38:54;;;;;;;1.37;1.12;;;;;;;8.58;68.94;101027.59;1790631;80;21442;-55
2023/05/06 01:41:22;;;;;;;2.50;1.27;;;;;;;8.49;69.26;101024.00;1767566;80;21046;-55
2023/05/06 01:43:51;;;;;;;1.60;1.10;;;;;;;8.48;69.29;101033.22;1790210;80;21003;-54
2023/05/06 01:46:21;;;;;;;2.27;1.00;;;;;;;8.51;69.22;101041.59;1790328;80;21564;-55
2023/05/06 01:48:53;;;;;;;5.33;1.15;;;;;;;8.51;69.22;101042.44;1790255;80;21070;-55
2023/05/06 01:51:23;;;;;;;3.05;1.12;;;;;;;8.50;69.12;101049.44;1790352;80;21062;-55
2023/05/06 01:53:52;;;;;;;3.62;1.20;;;;;;;8.48;69.05;101043.29;1790460;80;21015;-55
2023/05/06 01:56:20;;;;;;;1.32;0.93;;;;;;;8.46;68.96;101046.19;1790262;80;21422;-55
2023/05/06 01:58:49;;;;;;;1.15;0.88;;;;;;;8.45;68.91;101046.33;1790283;80;21447;-55
2023/05/06 02:01:18;;;;;;;1.10;0.98;;;;;;;8.42;68.88;101050.75;1790202;80;21490;-54
2023/05/06 02:03:46;;;;;;;1.72;1.07;;;;;;;8.35;68.83;101057.40;1790330;80;21050;-55
2023/05/06 02:06:16;;;;;;;2.10;1.05;;;;;;;8.30;68.76;101043.87;1787568;80;21031;-54
2023/05/06 02:08:45;;;;;;;1.77;0.98;;;;;;;8.26;68.73;101048.30;1756526;80;21501;-54
2023/05/06 02:11:15;;;;;;;1.40;1.10;;;;;;;8.22;68.82;101045.56;1787039;79;21435;-55
2023/05/06 02:13:46;;;;;;;1.30;1.05;;;;;;;8.20;68.92;101050.84;1786820;80;21083;-55
2023/05/06 02:16:15;;;;;;;2.55;1.30;;;;;;;8.19;68.98;101058.18;1787510;80;21474;-55
2023/05/06 02:18:44;;;;;;;1.85;1.10;;;;;;;8.17;68.95;101047.08;1756728;80;21506;-54
2023/05/06 02:21:13;;;;;;;1.77;1.30;;;;;;;8.18;68.99;101061.08;1787223;80;21111;-55
2023/05/06 02:23:41;;;;;;;2.10;1.10;;;;;;;8.14;69.01;101060.55;1787122;80;21046;-55
2023/05/06 02:26:10;;;;;;;5.67;1.80;;;;;;;8.11;69.17;101060.03;1787203;80;21003;-54
2023/05/06 02:28:40;;;;;;;1.92;1.00;;;;;;;8.07;69.44;101060.87;1787268;80;21011;-55
2023/05/06 02:31:08;;;;;;;1.87;0.95;;;;;;;8.05;69.54;101057.96;1786982;80;21066;-55
2023/05/06 02:33:37;;;;;;;1.10;0.90;;;;;;;8.03;69.61;101066.83;1757059;80;21016;-54
2023/05/06 02:36:07;;;;;;;1.90;0.90;;;;;;;8.04;69.69;101077.58;1787043;80;21426;-55
2023/05/06 02:38:35;;;;;;;4.17;1.42;;;;;;;8.07;69.58;101073.16;1787127;80;21403;-54
2023/05/06 02:41:04;;;;;;;1.90;1.20;;;;;;;8.05;69.52;101068.88;1786860;80;21513;-56
2023/05/06 02:43:33;;;;;;;1.30;0.90;;;;;;;8.06;69.49;101071.95;1787062;80;21720;-54
2023/05/06 02:46:02;;;;;;;2.35;1.20;;;;;;;8.07;69.49;101069.57;1786975;80;21022;-56
2023/05/06 02:48:31;;;;;;;3.17;1.00;;;;;;;8.05;69.32;101067.52;1787338;80;21434;-54
2023/05/06 02:51:00;;;;;;;1.67;0.90;;;;;;;8.04;69.19;101071.27;1787141;80;20995;-53
2023/05/06 02:53:29;;;;;;;2.30;0.85;;;;;;;8.07;68.89;101077.76;1787320;80;21427;-52
2023/05/06 02:55:59;;;;;;;2.75;0.95;;;;;;;8.06;68.50;101070.08;1786775;80;21508;-54
2023/05/06 02:58:27;;;;;;;1.40;1.00;;;;;;;8.04;68.50;101084.91;1787003;80;20995;-55
2023/05/06 03:00:56;;;;;;;1.87;1.00;;;;;;;8.05;68.24;101092.08;1787196;80;21470;-55
2023/05/06 03:03:25;;;;;;;2.65;1.20;;;;;;;8.04;67.77;101089.00;1787101;80;21513;-53
2023/05/06 03:05:53;;;;;;;1.70;0.80;;;;;;;8.00;67.60;101098.54;1788672;80;21500;-53
2023/05/06 03:08:24;;;;;;;3.58;1.07;;;;;;;8.01;67.40;101094.79;1790452;80;21508;-55
2023/05/06 03:10:52;;;;;;;1.10;0.90;;;;;;;8.00;67.18;101107.58;1790380;80;21532;-54
2023/05/06 03:13:22;;;;;;;1.27;0.98;;;;;;;7.95;67.19;101100.39;1790634;80;21019;-54
2023/05/06 03:15:53;;;;;;;1.30;0.95;;;;;;;7.95;67.18;101109.95;1790283;80;21046;-55
2023/05/06 03:18:22;;;;;;;1.87;1.12;;;;;;;7.97;66.97;101111.14;1761481;80;21426;-56
2023/05/06 03:20:52;;;;;;;1.85;1.00;;;;;;;7.92;66.75;101107.03;1790471;80;21082;-55
2023/05/06 03:23:21;;;;;;;1.30;1.00;;;;;;;7.92;66.61;101107.03;1790625;80;21050;-55
2023/05/06 03:25:50;;;;;;;1.72;1.00;;;;;;;7.92;66.52;101115.22;1790163;80;21518;-54
2023/05/06 03:28:19;;;;;;;8.25;1.20;;;;;;;7.91;66.37;101122.20;1790642;80;21011;-54
2023/05/06 03:30:50;;;;;;;2.67;1.10;;;;;;;7.89;65.72;101121.52;1790290;80;21042;-55
2023/05/06 03:33:18;;;;;;;2.17;1.17;;;;;;;7.87;65.59;101127.13;1790687;80;20983;-53
2023/05/06 03:35:47;;;;;;;3.58;1.22;;;;;;;7.85;65.30;101131.90;1790326;80;21506;-55
2023/05/06 03:38:18;;;;;;;1.62;1.00;;;;;;;7.84;65.10;101148.42;1790358;80;21705;-55
2023/05/06 03:40:48;;;;;;;3.45;1.20;;;;;;;7.88;64.80;101141.13;1789846;80;21097;-54
2023/05/06 03:43:17;;;;;;;2.45;1.30;;;;;;;7.93;64.59;101143.36;1790340;80;21466;-55
2023/05/06 03:45:48;;;;;;;1.87;1.10;;;;;;;7.94;64.43;101145.92;1761498;80;21142;-54
2023/05/06 03:48:17;;;;;;;2.75;1.07;;;;;;;7.99;64.04;101143.22;1790659;80;21458;-55
2023/05/06 03:50:45;;;;;;;2.50;1.30;;;;;;;7.97;63.88;101150.20;1790241;80;21035;-54
2023/05/06 03:53:16;;;;;;;2.45;1.37;;;;;;;7.95;63.55;101150.38;1762562;80;21500;-55
2023/05/06 03:55:46;;;;;;;4.83;1.30;;;;;;;7.92;63.11;101149.84;1790136;80;21438;-54
2023/05/06 03:58:15;;;;;;;2.12;1.50;;;;;;;7.91;63.08;101161.27;1790348;80;21038;-55
2023/05/06 04:00:45;;;;;;;2.60;1.32;;;;;;;7.90;62.49;101151.37;1790464;80;21505;-55
2023/05/06 04:03:13;;;;;;;1.47;1.20;;;;;;;7.91;62.41;101157.68;1790678;80;21034;-54
2023/05/06 04:05:46;;;;;;;1.85;1.17;;;;;;;7.94;62.32;101154.63;1789218;80;21450;-55
2023/05/06 04:08:18;;;;;;;1.77;1.30;;;;;;;7.98;62.34;101147.83;1757160;80;21074;-55
2023/05/06 04:10:47;;;;;;;1.72;1.05;;;;;;;8.00;62.05;101144.94;1787078;80;21466;-57
2023/05/06 04:13:18;;;;;;;1.35;0.95;;;;;;;8.05;62.16;101154.84;1784973;80;21423;-55
2023/05/06 04:15:49;;;;;;;4.62;1.37;;;;;;;8.09;62.18;101154.88;1787058;80;21031;-54
2023/05/06 04:18:19;;;;;;;2.42;1.40;;;;;;;8.11;62.05;101162.39;1786868;80;21427;-55
2023/05/06 04:20:51;;;;;;;2.42;1.20;;;;;;;8.13;61.83;101158.47;1785796;80;21016;-56
2023/05/06 04:23:20;;;;;;;2.50;1.20;;;;;;;8.15;62.00;101164.62;1787126;80;21022;-54
2023/05/06 04:25:50;;;;;;;2.05;1.27;;;;;;;8.20;62.36;101170.95;1787008;80;21448;-54
2023/05/06 04:28:20;;;;;;;3.20;1.20;;;;;;;8.21;62.48;101161.24;1787268;80;21391;-55
2023/05/06 04:30:51;;;;;;;3.65;1.52;;;;;;;8.23;62.52;101174.73;1786520;80;21027;-56
2023/05/06 04:33:23;;;;;;;2.83;1.25;;;;;;;8.23;62.53;101166.53;1787076;80;20975;-55
2023/05/06 04:35:55;;;;;;;1.82;1.02;;;;;;;8.23;62.53;101159.71;1786828;80;21447;-55
2023/05/06 04:38:26;;;;;;;1.70;1.10;;;;;;;8.27;62.17;101169.28;1756091;80;21078;-55
2023/05/06 04:40:55;;;;;;;2.22;1.25;;;;;;;8.29;61.68;101180.89;1786862;80;21490;-55
2023/05/06 04:43:28;;;;;;;2.42;1.20;;;;;;;8.30;61.74;101181.24;1786704;80;21516;-55
2023/05/06 04:45:58;;;;;;;3.37;1.20;;;;;;;8.35;61.49;101186.25;1785821;80;21050;-56
2023/05/06 04:48:29;;;;;;;1.70;1.10;;;;;;;8.40;61.04;101187.97;1787008;80;21043;-55
2023/05/06 04:50:58;;;;;;;2.70;1.30;;;;;;;8.45;60.30;101194.69;1786382;80;21054;-55
2023/05/06 04:53:27;;;;;;;2.95;1.30;;;;;;;8.43;60.35;101190.38;1786993;80;21434;-55
2023/05/06 04:55:55;;;;;;;3.30;1.15;;;;;;;8.43;60.21;101191.74;1786906;80;20987;-55
2023/05/06 04:58:25;;;;;;;2.50;1.30;;;;;;;8.46;60.10;101189.56;1786986;80;21038;-55
2023/05/06 05:00:56;;;;;;;5.00;1.40;;;;;;;8.51;59.85;101183.61;1756214;80;21494;-55
2023/05/06 05:03:24;;;;;;;2.40;1.15;;;;;;;8.56;59.71;101182.61;1787054;80;21501;-56
2023/05/06 05:05:56;;;;;;;1.98;1.10;;;;;;;8.58;59.35;101181.93;1787470;80;21085;-55
2023/05/06 05:08:26;;;;;;;2.12;1.20;;;;;;;8.60;59.05;101182.62;1790153;80;21482;-55
2023/05/06 05:10:55;;;;;;;2.40;1.20;;;;;;;8.67;58.49;101174.61;1789815;80;21050;-55
2023/05/06 05:13:24;;;;;;;2.30;1.37;;;;;;;8.72;58.61;101180.44;1790556;80;21507;-57
2023/05/06 05:15:55;;;;;;;2.22;1.12;;;;;;;8.81;58.57;101182.16;1790257;80;21086;-55
2023/05/06 05:18:27;;;;;;;4.33;1.20;;;;;;;8.89;57.78;101191.23;1789942;80;21018;-55
2023/05/06 05:20:58;;;;;;;2.80;1.40;;;;;;;8.96;57.07;101179.12;1790461;80;21022;-55
2023/05/06 05:23:28;;;;;;;2.12;1.10;;;;;;;9.07;56.29;101181.52;1790461;80;21470;-54
2023/05/06 05:25:57;;;;;;;2.75;1.35;;;;;;;9.24;55.24;101182.94;1790354;80;21446;-54
2023/05/06 05:28:27;;;;;;;2.65;1.35;;;;;;;9.40;54.71;101190.64;1790323;80;21551;-55
2023/05/06 05:31:02;;;;;;;1.67;1.07;;;;;;;9.50;54.14;101189.09;1790131;80;21460;-55
2023/05/06 05:33:33;;;;;;;1.70;1.00;;;;;;;9.55;53.99;101190.80;1790235;80;21093;-57
2023/05/06 05:36:03;;;;;;;3.00;1.27;;;;;;;9.56;53.18;101191.15;1761490;80;21537;-56
2023/05/06 05:38:32;;;;;;;3.52;1.37;;;;;;;9.55;52.11;101188.06;1762262;80;21458;-56
2023/05/06 05:41:01;;;;;;;1.25;1.00;;;;;;;9.49;52.58;101182.77;1790400;80;21015;-56
2023/05/06 05:43:30;;;;;;;1.82;1.20;;;;;;;9.48;52.65;101181.58;1790350;80;21035;-57
2023/05/06 05:45:59;;;;;;;1.82;1.22;;;;;;;9.49;52.03;101187.39;1790166;80;21228;-56
2023/05/06 05:48:31;;;;;;;3.42;1.60;;;;;;;9.50;50.97;101183.11;1790092;80;21496;-55
2023/05/06 05:51:01;;;;;;;1.85;1.30;;;;;;;9.50;50.65;101189.09;1761604;80;21414;-56
2023/05/06 05:53:30;;;;;;;1.72;1.10;;;;;;;9.53;50.73;101189.61;1790331;80;21482;-55
2023/05/06 05:56:00;;;;;;;3.00;1.30;;;;;;;9.59;50.50;101189.44;1790245;80;21478;-56
2023/05/06 05:58:30;;;;;;;2.60;1.20;;;;;;;9.60;49.68;101191.66;1790456;80;21038;-56
2023/05/06 06:01:00;;;;;;;3.75;1.02;;;;;;;9.53;48.70;101191.49;1790437;80;21568;-57
2023/05/06 06:03:29;;;;;;;2.75;1.10;;;;;;;9.51;47.95;101194.91;1790252;80;21071;-54
2023/05/06 06:05:58;;;;;;;6.62;1.57;;;;;;;9.47;48.62;101186.70;1790043;80;21521;-55
2023/05/06 06:08:28;;;;;;;2.52;1.27;;;;;;;9.44;48.36;101199.36;1787148;80;21030;-56
2023/05/06 06:10:58;;;;;;;2.50;1.10;;;;;;;9.42;48.16;101199.53;1757653;80;21059;-55
2023/05/06 06:13:29;;;;;;;2.20;1.10;;;;;;;9.44;47.74;101200.21;1786745;80;21000;-55
2023/05/06 06:15:59;;;;;;;1.90;1.22;;;;;;;9.46;46.33;101205.00;1787043;80;21058;-56
2023/05/06 06:18:28;;;;;;;3.10;1.20;;;;;;;9.47;46.18;101196.28;1787047;80;21054;-55
2023/05/06 06:20:58;;;;;;;4.83;2.05;;;;;;;9.52;46.45;101197.98;1786933;80;20995;-55
2023/05/06 06:23:27;;;;;;;2.58;1.00;;;;;;;9.70;45.91;101203.28;1786921;80;21000;-55
2023/05/06 06:25:55;;;;;;;3.87;1.10;;;;;;;10.07;44.83;101205.47;1786770;80;21434;-55
2023/05/06 06:28:25;;;;;;;3.25;1.10;;;;;;;10.62;41.33;101223.33;1787045;80;21470;-55
2023/05/06 06:30:54;;;;;;;3.72;1.30;;;;;;;11.10;38.91;101213.16;1786762;80;21475;-55
2023/05/06 06:33:24;;;;;;;1.57;1.00;;;;;;;11.54;38.35;101200.98;1787032;80;21434;-54
2023/05/06 06:35:52;;;;;;;3.40;1.05;;;;;;;11.93;38.05;101198.63;1786850;80;21003;-56
2023/05/06 06:38:21;;;;;;;1.95;0.93;;;;;;;12.29;37.88;101196.01;1786688;80;21455;-55
2023/05/06 06:40:49;;;;;;;4.60;0.80;;;;;;;12.72;35.88;101205.81;1787087;80;21078;-57
2023/05/06 06:43:23;;;;;;;4.80;1.10;;;;;;;13.11;35.37;101211.83;1787095;80;21103;-57
2023/05/06 06:45:56;;;;;;;5.37;1.82;;;;;;;13.56;33.41;101207.88;1786708;80;21485;-56
2023/05/06 06:48:25;;;;;;;3.85;0.95;;;;;;;13.92;31.94;101209.69;1786692;80;21062;-55
2023/05/06 06:50:54;;;;;;;2.25;1.00;;;;;;;14.19;32.34;101209.36;1786676;80;21055;-56
2023/05/06 06:53:23;;;;;;;3.62;1.10;;;;;;;14.59;31.54;101212.73;1786941;80;21007;-55
2023/05/06 06:55:51;;;;;;;1.87;1.00;;;;;;;14.94;31.35;101215.97;1786872;80;21502;-56
2023/05/06 06:58:21;;;;;;;2.62;1.00;;;;;;;15.14;28.75;101209.49;1786936;80;20987;-56
2023/05/06 07:00:50;;;;;;;2.70;1.30;;;;;;;15.19;29.46;101214.39;1787096;80;21062;-56
2023/05/06 07:03:19;;;;;;;2.95;1.17;;;;;;;15.29;29.54;101210.70;1786946;80;21485;-57
2023/05/06 07:05:49;;;;;;;4.95;1.40;;;;;;;15.47;28.87;101214.23;1787262;80;21427;-55
2023/05/06 07:08:20;;;;;;;2.02;1.30;;;;;;;15.83;28.55;101216.13;1790053;80;21058;-56
2023/05/06 07:10:50;;;;;;;2.77;1.30;;;;;;;16.05;26.53;101215.91;1790343;80;21469;-58
2023/05/06 07:13:21;;;;;;;2.47;1.35;;;;;;;16.11;25.67;101211.77;1790585;80;21163;-55
2023/05/06 07:15:49;;;;;;;1.95;1.15;;;;;;;15.99;25.73;101220.91;1790253;80;21003;-55
2023/05/06 07:18:17;;;;;;;4.10;1.20;;;;;;;15.99;25.25;101207.94;1790300;80;21011;-58
2023/05/06 07:20:46;;;;;;;5.08;1.15;;;;;;;15.82;25.90;101213.58;1790594;80;21058;-57
2023/05/06 07:23:16;;;;;;;1.62;1.20;;;;;;;15.97;25.68;101217.52;1790495;80;20994;-55
2023/05/06 07:25:45;;;;;;;2.50;1.45;;;;;;;16.27;25.08;101217.41;1790323;80;21468;-56
2023/05/06 07:28:14;;;;;;;4.87;1.32;;;;;;;16.46;25.30;101209.60;1790425;80;21003;-58
2023/05/06 07:30:43;;;;;;;2.65;1.37;;;;;;;16.59;25.32;101212.86;1790236;80;21007;-57
2023/05/06 07:33:11;;;;;;;2.72;1.20;;;;;;;16.82;24.41;101209.63;1790298;80;21078;-56
2023/05/06 07:35:40;;;;;;;3.35;1.35;;;;;;;16.82;24.02;101196.31;1790343;80;21459;-57
2023/05/06 07:38:09;;;;;;;1.90;1.50;;;;;;;16.84;24.11;101200.56;1790325;80;21427;-56
2023/05/06 07:40:37;;;;;;;1.85;1.05;;;;;;;16.92;23.93;101204.50;1790253;80;21403;-56
2023/05/06 07:43:08;;;;;;;3.58;1.40;;;;;;;16.95;22.87;101199.05;1790208;80;22020;-55
2023/05/06 07:45:36;;;;;;;1.27;1.02;;;;;;;16.92;22.98;101207.80;1790354;80;21019;-56
2023/05/06 07:48:05;;;;;;;4.47;1.30;;;;;;;17.05;21.76;101206.36;1790617;80;21047;-56
2023/05/06 07:50:34;;;;;;;3.20;1.20;;;;;;;17.05;22.12;101204.97;1790935;79;21011;-57
2023/05/06 07:53:02;;;;;;;2.75;1.22;;;;;;;17.11;22.34;101199.93;1796016;80;21057;-56
2023/05/06 07:55:31;;;;;;;3.98;1.40;;;;;;;17.26;21.94;101212.09;1791811;80;21042;-56
2023/05/06 07:58:02;;;;;;;3.05;1.40;;;;;;;17.40;20.93;101215.95;1787417;80;21379;-56
2023/05/06 08:00:31;;;;;;;3.72;1.52;;;;;;;17.48;20.95;101211.21;1800323;80;21491;-58
2023/05/06 08:03:00;;;;;;;3.12;1.20;;;;;;;17.43;21.28;101209.96;1800919;80;21039;-55
2023/05/06 08:05:30;;;;;;;2.15;1.20;;;;;;;17.69;21.45;101213.15;1800751;79;21086;-55
2023/05/06 08:07:59;;;;;;;1.77;1.17;;;;;;;18.01;20.93;101213.09;1787744;79;21101;-55
2023/05/06 08:10:29;;;;;;;3.27;1.27;;;;;;;18.12;20.27;101219.29;1720765;82;21053;-56
2023/05/06 08:12:58;;;;;;;2.30;1.40;;;;;;;18.00;20.27;101207.24;1772661;81;21033;-57
2023/05/06 08:15:26;;;;;;;2.47;1.10;;;;;;;17.94;20.90;101212.30;1721189;82;21440;-57
2023/05/06 08:17:56;;;;;;;4.47;1.30;;;;;;;18.06;21.01;101217.42;1772701;81;21077;-57
2023/05/06 08:20:27;;;;;;;2.33;1.20;;;;;;;18.09;21.55;101220.28;1774123;80;21020;-56
2023/05/06 08:22:56;;;;;;;2.02;1.37;;;;;;;18.06;21.38;101223.82;1781126;80;21028;-58
2023/05/06 08:25:26;;;;;;;2.02;1.00;;;;;;;18.15;21.56;101218.83;1775743;80;21041;-56
2023/05/06 08:27:55;;;;;;;7.62;1.72;;;;;;;18.25;21.51;101216.95;1772822;81;21061;-57
2023/05/06 08:30:23;;;;;;;3.55;1.32;;;;;;;18.21;21.71;101215.72;1764260;81;21021;-56
2023/05/06 08:32:52;;;;;;;3.90;1.30;;;;;;;18.24;23.71;101213.34;1720820;83;21064;-56
2023/05/06 08:35:22;;;;;;;2.92;1.50;;;;;;;18.29;21.83;101216.81;1740544;81;21066;-56
2023/05/06 08:37:51;;;;;;;7.08;2.12;;;;;;;18.33;22.00;101213.34;1729181;82;21147;-57
2023/05/06 08:40:21;;;;;;;2.95;1.50;;;;;;;18.45;21.68;101205.11;1721650;83;21427;-57
2023/05/06 08:42:51;;;;;;;4.00;1.40;;;;;;;18.46;21.75;101215.14;1753916;80;21006;-58
2023/05/06 08:45:22;;;;;;;4.90;1.30;;;;;;;18.44;21.56;101219.22;1779533;80;21124;-56
2023/05/06 08:47:51;;;;;;;5.08;1.80;;;;;;;18.46;21.55;101223.47;1779324;80;21062;-56
2023/05/06 08:50:20;;;;;;;3.60;1.40;;;;;;;18.36;21.41;101218.44;1779517;80;21473;-56
2023/05/06 08:52:49;;;;;;;3.65;1.52;;;;;;;18.14;21.69;101227.38;1754062;80;21035;-56
2023/05/06 08:55:18;;;;;;;2.37;1.30;;;;;;;17.91;21.28;101225.23;1706454;80;21427;-57
2023/05/06 08:57:50;;;;;;;3.65;1.37;;;;;;;17.88;21.45;101216.83;1779371;80;20999;-56
2023/05/06 09:00:20;;;;;;;3.98;1.65;;;;;;;17.85;21.10;101224.22;1753417;80;21032;-56
2023/05/06 09:02:50;;;;;;;4.05;1.32;;;;;;;17.81;21.02;101228.52;1779476;80;20991;-56
2023/05/06 09:05:24;;;;;;;3.83;1.65;;;;;;;17.70;21.23;101225.93;1779276;80;21054;-55
2023/05/06 09:07:53;;;;;;;2.55;1.50;;;;;;;17.56;21.15;101231.22;1786624;79;21486;-56
2023/05/06 09:10:23;;;;;;;4.85;1.70;;;;;;;17.32;21.25;101240.30;1806179;79;21398;-59
2023/05/06 09:12:53;;;;;;;4.67;1.40;;;;;;;17.04;21.48;101228.19;1787537;79;21072;-57
2023/05/06 09:15:26;;;;;;;2.83;1.50;;;;;;;16.79;21.51;101227.52;1766956;81;21028;-54
2023/05/06 09:17:55;;;;;;;4.00;1.30;;;;;;;16.70;21.27;101234.89;1816425;79;21489;-57
2023/05/06 09:20:23;;;;;;;1.72;1.50;;;;;;;16.61;21.75;101236.17;1819536;79;21011;-56
2023/05/06 09:22:52;;;;;;;3.35;1.20;;;;;;;16.53;21.42;101241.40;1819279;79;21003;-56
2023/05/06 09:25:21;;;;;;;3.05;1.30;;;;;;;16.45;21.64;101233.33;1800870;79;21438;-58
2023/05/06 09:27:54;;;;;;;7.37;1.37;;;;;;;16.38;21.73;101235.26;1781551;80;21083;-56
2023/05/06 09:30:23;;;;;;;3.70;1.40;;;;;;;16.29;21.84;101234.64;1700719;82;21035;-56
2023/05/06 09:32:52;;;;;;;3.47;1.22;;;;;;;16.23;21.49;101240.99;1738072;82;21437;-57
2023/05/06 09:35:20;;;;;;;3.40;1.17;;;;;;;16.05;20.55;101229.20;1723404;82;21484;-55
2023/05/06 09:37:49;;;;;;;2.62;1.10;;;;;;;15.94;20.95;101231.77;1757374;81;21076;-56
2023/05/06 09:40:18;;;;;;;2.52;1.20;;;;;;;15.87;21.19;101229.00;1714427;82;21008;-56
2023/05/06 09:42:49;;;;;;;3.60;1.30;;;;;;;15.83;21.73;101229.11;1772358;80;21483;-56
2023/05/06 09:45:17;;;;;;;1.55;1.00;;;;;;;15.72;21.39;101230.58;1819627;79;21504;-56
2023/05/06 09:47:48;;;;;;;4.47;1.25;;;;;;;15.59;20.36;101228.30;1819194;79;21419;-55
2023/05/06 09:50:17;;;;;;;4.25;1.30;;;;;;;15.43;20.11;101223.47;1819337;79;21451;-56
2023/05/06 09:52:46;;;;;;;2.52;1.07;;;;;;;15.34;20.21;101217.82;1786867;79;21066;-56
2023/05/06 09:55:14;;;;;;;1.92;0.93;;;;;;;15.31;20.81;101222.91;1761097;79;21097;-55
2023/05/06 09:57:44;;;;;;;1.32;1.02;;;;;;;15.27;20.57;101214.72;1819226;79;21050;-56
2023/05/06 10:00:15;;;;;;;3.80;1.30;;;;;;;15.26;20.62;101210.27;1783446;79;21026;-60
2023/05/06 10:02:44;;;;;;;2.12;1.20;;;;;;;15.24;21.32;101225.66;1781392;80;21003;-56
2023/05/06 10:05:13;;;;;;;3.60;1.12;;;;;;;15.19;20.83;101224.05;1781447;80;20991;-56
2023/05/06 10:07:43;;;;;;;1.75;1.00;;;;;;;15.09;20.95;101219.45;1781216;80;21460;-57
2023/05/06 10:10:12;;;;;;;2.62;1.40;;;;;;;15.01;20.35;101214.12;1781360;80;21418;-56
2023/05/06 10:12:41;;;;;;;2.90;1.20;;;;;;;14.95;20.82;101220.44;1781250;80;21061;-55
2023/05/06 10:15:09;;;;;;;2.05;1.20;;;;;;;14.91;20.45;101217.23;1781195;80;21023;-55
2023/05/06 10:17:39;;;;;;;1.82;1.10;;;;;;;14.90;20.18;101218.30;1786748;80;21041;-58
2023/05/06 10:20:10;;;;;;;4.22;1.15;;;;;;;14.83;20.58;101216.88;1757128;80;20999;-54
2023/05/06 10:23:21;;;;;;;1.65;1.30;;;;;;;14.80;21.64;101213.16;1749632;81;21451;-56
2023/05/06 10:25:55;;;;;;;2.02;1.25;;;;;;;14.82;21.65;101225.37;1749631;81;21375;-56
2023/05/06 10:28:25;;;;;;;3.00;1.22;;;;;;;14.71;21.39;101209.41;1749987;81;21043;-56
2023/05/06 10:30:57;;;;;;;2.12;1.10;;;;;;;14.61;21.34;101210.30;1786578;80;21075;-56
2023/05/06 10:33:26;;;;;;;3.02;1.15;;;;;;;14.58;21.15;101221.22;1749965;81;21055;-54
2023/05/06 10:36:23;;;;;;;2.20;1.20;;;;;;;14.58;21.94;101221.22;1763045;81;21071;-56
2023/05/06 10:38:56;;;;;;;4.25;1.22;;;;;;;14.57;21.96;101227.27;1787109;80;21019;-56
2023/05/06 10:41:28;;;;;;;3.40;1.25;;;;;;;14.54;21.30;101233.72;1787094;80;21058;-56
2023/05/06 10:43:58;;;;;;;3.90;1.10;;;;;;;14.45;21.34;101230.27;1787047;80;21490;-56
2023/05/06 10:46:28;;;;;;;2.60;1.10;;;;;;;14.37;21.22;101224.03;1757131;80;21521;-55
2023/05/06 10:49:12;;;;;;;7.72;4.00;;;;;;;14.33;21.46;101233.77;1719873;82;21083;-56
2023/05/06 10:51:43;;;;;;;2.90;1.35;;;;;;;14.25;21.05;101218.20;1762894;81;21012;-55
2023/05/06 10:54:21;;;;;;;2.35;1.20;;;;;;;14.12;21.14;101220.86;1748759;81;21130;-56
2023/05/06 10:56:57;;;;;;;3.05;1.30;;;;;;;14.14;21.26;101224.27;1744328;82;21501;-55
2023/05/06 10:59:28;;;;;;;2.72;1.40;;;;;;;14.27;21.00;101203.69;1740925;82;21478;-56
2023/05/06 11:02:08;;;;;;;3.37;1.35;;;;;;;14.37;21.16;101224.03;1738907;82;21016;-57
2023/05/06 11:04:37;;;;;;;4.30;1.20;;;;;;;14.42;21.36;101226.54;1738746;82;21036;-55
2023/05/06 11:07:13;;;;;;;4.33;1.57;;;;;;;14.46;21.69;101217.33;1718123;82;21004;-56
2023/05/06 11:10:03;;;;;;;4.22;1.35;;;;;;;14.43;21.68;101224.63;1757307;81;20999;-56
2023/05/06 11:12:49;;;;;;;2.52;1.10;;;;;;;14.43;21.77;101219.12;1757258;81;21520;-56
2023/05/06 11:15:39;;;;;;;4.40;1.42;;;;;;;14.41;21.16;101215.68;1757355;81;21415;-59
2023/05/06 11:18:29;;;;;;;3.15;1.22;;;;;;;14.36;20.83;101208.55;1720878;83;21054;-57
2023/05/06 11:21:05;;;;;;;3.75;1.17;;;;;;;14.28;21.87;101203.48;1690722;83;21071;-58
2023/05/06 11:23:48;;;;;;;10.85;2.10;;;;;;;14.27;22.89;101203.69;1720659;83;21537;-59
2023/05/06 11:26:17;;;;;;;2.75;1.20;;;;;;;14.34;23.20;101207.38;1720971;83;21066;-57
2023/05/06 11:28:49;;;;;;;1.95;1.17;;;;;;;14.41;23.45;101214.30;1720751;83;21078;-57
2023/05/06 11:31:18;;;;;;;3.27;1.20;;;;;;;14.34;23.35;101195.48;1720694;83;20995;-58
2023/05/06 11:33:51;;;;;;;3.80;1.30;;;;;;;14.26;23.52;101193.19;1720531;83;21451;-57
2023/05/06 11:36:21;;;;;;;3.02;1.60;;;;;;;14.24;23.63;101179.28;1720830;83;21532;-57
2023/05/06 11:38:55;;;;;;;2.62;1.40;;;;;;;14.25;23.35;101195.62;1763868;81;21024;-59
2023/05/06 11:41:26;;;;;;;3.23;1.10;;;;;;;14.24;23.57;101180.13;1764110;81;21085;-58
2023/05/06 11:43:55;;;;;;;2.47;1.20;;;;;;;14.23;23.30;101181.19;1764014;81;21787;-57
2023/05/06 11:46:24;;;;;;;2.85;1.20;;;;;;;14.24;23.80;101184.80;1764125;81;21080;-57